Riverton, Washington
Current Conditions -  °F | °C
As of 12:53 PM on Friday 19 Dec 2014 (Local Time) from KSEA Reporting Station
Broken Clouds Broken Clouds  
Wind Chill: 50°   Ceiling: 25000
Heat Index: 50°   Visibility: 10mi
Dew Point: 40°   Wind: 13mph
Humidity: 68%   Direction: 200°SSW
Pressure: 29.96"   Gusts: 18mph
Location:  47.4488°N, 122.28°W
Report Text: KSEA 192053Z 20011G16KT 10SM SCT025 SCT048 BKN250 10/04 A2996 RMK AO2 RAB42E51 SLP151 P0000 60000 T01000044 51012
Loading
Personal Weather Stations






























Interactive Weather Map New forecast layout! Learn more

10-Day Weather Forecast

Advertisements
Track Severe Weather on mobile